Savanna, Oklahoma
Current Conditions -  °F | °C
As of 6:53 AM on Thursday 18 Dec 2014 (Local Time) from KMLC Reporting Station
Haze Haze  
Wind Chill: 41°   Ceiling: 300
Heat Index: 41°   Visibility: 3mi
Dew Point: 39°   Wind: 0mph
Humidity: 93%   Direction: NA
Pressure: 30.16"   Gusts: NA
Location:  34.83°N, 95.84°W
Report Text: KMLC 181253Z AUTO 00000KT 3SM BR OVC003 05/04 A3016 RMK AO2 SLP214 T00500039
Loading
Personal Weather Stations






























Interactive Weather Map New forecast layout! Learn more

10-Day Weather Forecast

Advertisements
Track Severe Weather on mobile